createdAt,value
2023-03-31T00:02:23.727Z,92.50
2023-03-31T00:05:48.111Z,92.90
2023-03-31T00:09:18.984Z,92.50
2023-03-31T00:12:41.292Z,92.50
2023-03-31T00:16:09.280Z,92.50
2023-03-31T00:19:33.203Z,92.50
2023-03-31T00:22:57.755Z,92.40
2023-03-31T00:26:20.334Z,92.50
2023-03-31T00:29:43.628Z,92.40
2023-03-31T00:33:05.961Z,92.30
2023-03-31T00:36:28.886Z,92.30
2023-03-31T00:39:51.164Z,92.30
2023-03-31T00:43:45.606Z,92.30
2023-03-31T00:47:13.269Z,92.20
2023-03-31T00:50:45.398Z,92.10
2023-03-31T00:54:08.471Z,92.10
2023-03-31T00:57:32.637Z,92.00
2023-03-31T01:00:58.077Z,92.00
2023-03-31T01:04:22.816Z,91.90
2023-03-31T01:07:48.106Z,91.90
2023-03-31T01:11:14.267Z,91.80
2023-03-31T01:14:36.739Z,91.90
2023-03-31T01:18:00.614Z,91.90
2023-03-31T01:21:57.061Z,91.90
2023-03-31T01:25:53.106Z,91.90
2023-03-31T01:29:34.853Z,91.90
2023-03-31T01:32:57.694Z,91.90
2023-03-31T01:36:22.998Z,91.80
2023-03-31T01:39:45.333Z,91.80
2023-03-31T01:43:26.425Z,91.80
2023-03-31T01:47:11.172Z,91.90
2023-03-31T01:50:45.872Z,91.80
2023-03-31T01:55:06.751Z,91.80
2023-03-31T01:58:47.092Z,91.70
2023-03-31T02:02:19.349Z,91.70
2023-03-31T02:05:47.976Z,91.70
2023-03-31T02:09:16.380Z,91.70
2023-03-31T02:12:41.189Z,91.80
2023-03-31T02:16:08.718Z,91.80
2023-03-31T02:19:39.730Z,91.80
2023-03-31T02:23:02.607Z,91.70
2023-03-31T02:26:31.122Z,91.70
2023-03-31T02:29:55.142Z,91.70
2023-03-31T02:33:17.701Z,91.60
2023-03-31T02:36:42.466Z,91.50
2023-03-31T02:40:12.278Z,91.50
2023-03-31T02:43:34.749Z,91.40
2023-03-31T02:46:57.008Z,91.30
2023-03-31T02:50:24.632Z,91.30
2023-03-31T02:53:46.853Z,91.20
2023-03-31T02:57:22.722Z,91.10
2023-03-31T03:01:01.181Z,90.90
2023-03-31T03:04:49.830Z,90.80
2023-03-31T03:08:27.517Z,90.80
2023-03-31T03:11:52.620Z,90.80
2023-03-31T03:15:34.408Z,90.70
2023-03-31T03:19:01.900Z,90.60
2023-03-31T03:22:24.225Z,90.50
2023-03-31T03:25:46.972Z,90.50
2023-03-31T03:29:09.295Z,90.70
2023-03-31T03:32:33.781Z,90.30
2023-03-31T03:35:56.197Z,90.20
2023-03-31T03:39:18.458Z,90.20
2023-03-31T03:42:40.778Z,90.20
2023-03-31T03:46:03.207Z,90.20
2023-03-31T03:49:25.587Z,90.10
2023-03-31T03:52:47.793Z,90.00
2023-03-31T03:56:10.040Z,90.00
2023-03-31T03:59:32.276Z,90.00
2023-03-31T04:02:54.555Z,89.90
2023-03-31T04:06:16.792Z,89.80
2023-03-31T04:09:39.027Z,89.90
2023-03-31T04:13:01.622Z,89.90
2023-03-31T04:16:25.476Z,90.20
2023-03-31T04:19:50.838Z,90.40
2023-03-31T04:23:15.568Z,90.60
2023-03-31T04:26:43.765Z,90.80
2023-03-31T04:30:08.942Z,90.80
2023-03-31T04:33:34.135Z,90.90
2023-03-31T04:36:56.373Z,90.90
2023-03-31T04:40:18.847Z,90.90
2023-03-31T04:43:41.479Z,91.00
2023-03-31T04:47:03.918Z,91.10
2023-03-31T04:50:26.133Z,90.80
2023-03-31T04:53:48.410Z,90.60
2023-03-31T04:57:11.370Z,90.40
2023-03-31T05:00:33.934Z,90.70
2023-03-31T05:03:56.244Z,91.00
2023-03-31T05:07:19.259Z,91.00
2023-03-31T05:10:41.564Z,90.70
2023-03-31T05:14:04.013Z,90.90
2023-03-31T05:17:26.300Z,90.90
2023-03-31T05:20:48.690Z,90.40
2023-03-31T05:24:11.206Z,90.90
2023-03-31T05:27:34.390Z,90.90
2023-03-31T05:31:00.634Z,91.10
2023-03-31T05:34:22.928Z,91.80
2023-03-31T05:37:45.865Z,91.00
2023-03-31T05:41:09.556Z,90.80
2023-03-31T05:44:32.016Z,91.00
2023-03-31T05:47:54.423Z,90.70
2023-03-31T05:51:16.672Z,90.40
2023-03-31T05:54:38.971Z,90.40
2023-03-31T05:58:01.320Z,90.40
2023-03-31T06:01:24.941Z,89.10
2023-03-31T06:04:47.250Z,88.70
2023-03-31T06:08:09.632Z,89.50
2023-03-31T06:11:31.888Z,89.60
2023-03-31T06:14:54.183Z,89.60
2023-03-31T06:18:16.463Z,89.40
2023-03-31T06:21:38.748Z,89.90
2023-03-31T06:25:01.126Z,90.70
2023-03-31T06:28:23.420Z,90.40
2023-03-31T06:31:46.082Z,89.70
2023-03-31T06:35:09.004Z,89.40
2023-03-31T06:38:31.955Z,88.70
2023-03-31T06:41:54.192Z,89.00
2023-03-31T06:45:22.552Z,89.10
2023-03-31T06:48:44.899Z,88.20
2023-03-31T06:52:07.236Z,88.40
2023-03-31T06:55:29.444Z,88.60
2023-03-31T06:58:51.680Z,88.90
2023-03-31T07:02:14.008Z,88.40
2023-03-31T07:05:36.594Z,89.50
2023-03-31T07:08:59.191Z,88.40
2023-03-31T07:12:21.522Z,87.90
2023-03-31T07:15:44.612Z,88.40
2023-03-31T07:19:08.067Z,88.10
2023-03-31T07:22:30.606Z,87.60
2023-03-31T07:25:52.943Z,88.10
2023-03-31T07:29:15.298Z,88.20
2023-03-31T07:32:40.210Z,88.00
2023-03-31T07:36:12.927Z,87.80
2023-03-31T07:39:37.011Z,87.00
2023-03-31T07:42:59.561Z,87.00
2023-03-31T07:46:24.929Z,87.30
2023-03-31T07:49:48.294Z,87.00
2023-03-31T07:53:10.680Z,86.80
2023-03-31T07:56:33.533Z,86.40
2023-03-31T07:59:55.759Z,86.10
2023-03-31T08:03:18.152Z,86.00
2023-03-31T08:06:41.005Z,86.40
2023-03-31T08:10:06.455Z,86.90
2023-03-31T08:13:28.680Z,87.20
2023-03-31T08:16:51.673Z,87.40
2023-03-31T08:20:13.995Z,87.50
2023-03-31T08:23:37.021Z,88.80
2023-03-31T08:26:59.364Z,88.70
2023-03-31T08:30:23.771Z,88.10
2023-03-31T08:33:46.637Z,89.70
2023-03-31T08:37:09.993Z,89.40
2023-03-31T08:40:33.066Z,89.30
2023-03-31T08:43:58.242Z,87.80
2023-03-31T08:47:23.971Z,88.10
2023-03-31T08:50:52.873Z,87.80
2023-03-31T08:54:40.287Z,88.00
2023-03-31T08:58:14.071Z,87.70
2023-03-31T09:01:47.884Z,87.30
2023-03-31T09:05:53.062Z,88.80
2023-03-31T09:10:03.637Z,89.80
2023-03-31T09:14:04.570Z,89.80
2023-03-31T09:17:33.834Z,89.70
2023-03-31T09:21:21.120Z,89.60
2023-03-31T09:25:16.004Z,89.40
2023-03-31T09:28:39.856Z,89.20
2023-03-31T09:32:12.309Z,89.00
2023-03-31T09:35:34.780Z,88.90
2023-03-31T09:38:57.098Z,88.30
2023-03-31T09:42:19.375Z,88.80
2023-03-31T09:45:41.751Z,88.90
2023-03-31T09:49:18.071Z,88.80
2023-03-31T09:52:52.352Z,88.80
2023-03-31T09:56:47.136Z,88.10
2023-03-31T10:00:16.317Z,88.50
2023-03-31T10:04:08.519Z,88.50
2023-03-31T10:07:31.312Z,88.50
2023-03-31T10:11:07.717Z,88.30
2023-03-31T10:14:41.131Z,88.30
2023-03-31T10:18:03.526Z,88.20
2023-03-31T10:21:35.187Z,88.10
2023-03-31T10:25:11.266Z,88.10
2023-03-31T10:28:36.944Z,88.00
2023-03-31T10:32:15.257Z,88.00
2023-03-31T10:35:37.628Z,87.90
2023-03-31T10:38:59.942Z,87.70
2023-03-31T10:42:23.690Z,87.50
2023-03-31T10:45:56.237Z,87.50
2023-03-31T10:49:21.303Z,87.40
2023-03-31T10:52:46.832Z,87.30
2023-03-31T10:56:24.159Z,87.30
2023-03-31T10:59:52.484Z,87.10
2023-03-31T11:03:20.685Z,87.40
2023-03-31T11:07:09.486Z,87.30
2023-03-31T11:10:36.942Z,87.50
2023-03-31T11:14:10.712Z,87.70
2023-03-31T11:17:48.426Z,87.90
2023-03-31T11:21:35.107Z,88.00
2023-03-31T11:25:16.269Z,87.90
2023-03-31T11:28:53.393Z,86.50
2023-03-31T11:32:34.343Z,87.90
2023-03-31T11:36:14.780Z,87.90
2023-03-31T11:39:51.796Z,88.10
2023-03-31T11:43:27.832Z,87.60
2023-03-31T11:47:06.522Z,87.80
2023-03-31T11:50:33.261Z,88.10
2023-03-31T11:53:59.072Z,87.60
2023-03-31T11:57:27.705Z,87.90
2023-03-31T12:01:00.171Z,87.00
2023-03-31T12:04:33.596Z,87.00
2023-03-31T12:08:13.759Z,87.70
2023-03-31T12:12:06.165Z,87.90
2023-03-31T12:15:37.666Z,87.60
2023-03-31T12:19:27.833Z,88.10
2023-03-31T12:22:50.625Z,87.60
2023-03-31T12:26:29.005Z,87.90
2023-03-31T12:30:17.325Z,87.60
2023-03-31T12:33:44.510Z,87.60
2023-03-31T12:37:28.591Z,88.20
2023-03-31T12:41:03.990Z,87.60
2023-03-31T12:44:33.325Z,87.60
2023-03-31T12:48:21.369Z,87.80
2023-03-31T12:51:59.286Z,86.00
2023-03-31T12:55:36.183Z,86.00
2023-03-31T12:59:18.357Z,86.90
2023-03-31T13:02:41.380Z,87.00
2023-03-31T13:06:05.017Z,87.00
2023-03-31T13:09:47.822Z,87.10
2023-03-31T13:13:16.947Z,86.60
2023-03-31T13:16:39.729Z,86.90
2023-03-31T13:20:38.585Z,87.10
2023-03-31T13:24:03.060Z,86.90
2023-03-31T13:27:34.270Z,86.80
2023-03-31T13:31:01.935Z,86.70
2023-03-31T13:34:24.725Z,86.90
2023-03-31T13:38:16.726Z,86.90
2023-03-31T13:41:43.211Z,86.80
2023-03-31T13:45:26.686Z,86.70
2023-03-31T13:48:51.564Z,86.50
2023-03-31T13:52:14.311Z,86.50
2023-03-31T13:56:03.709Z,86.30
2023-03-31T13:59:35.065Z,86.20
2023-03-31T14:03:42.300Z,86.20
2023-03-31T14:07:17.731Z,86.10
2023-03-31T14:10:42.859Z,85.70
2023-03-31T14:14:16.290Z,85.80
2023-03-31T14:17:40.476Z,85.70
2023-03-31T14:21:06.259Z,85.60
2023-03-31T14:24:44.641Z,85.60
2023-03-31T14:28:46.914Z,85.50
2023-03-31T14:32:49.713Z,85.40
2023-03-31T14:36:31.315Z,85.30
2023-03-31T14:39:56.657Z,85.30
2023-03-31T14:43:28.114Z,85.50
2023-03-31T14:46:51.753Z,85.30
2023-03-31T14:50:17.285Z,85.10
2023-03-31T14:53:39.797Z,85.30
2023-03-31T14:57:03.047Z,85.50
2023-03-31T15:00:30.462Z,85.30
2023-03-31T15:03:54.102Z,85.40
2023-03-31T15:07:17.907Z,84.80
2023-03-31T15:10:50.365Z,85.10
2023-03-31T15:14:14.364Z,85.00
2023-03-31T15:17:42.097Z,84.30
2023-03-31T15:21:04.639Z,84.50
2023-03-31T15:24:27.294Z,84.10
2023-03-31T15:27:55.308Z,84.60
2023-03-31T15:31:17.756Z,84.50
2023-03-31T15:34:43.282Z,84.10
2023-03-31T15:38:06.438Z,85.10
2023-03-31T15:41:31.608Z,84.80
2023-03-31T15:45:11.240Z,84.60
2023-03-31T15:48:34.759Z,84.80
2023-03-31T15:51:57.710Z,85.10
2023-03-31T15:55:31.208Z,84.50
2023-03-31T15:58:59.209Z,84.60
2023-03-31T16:02:27.577Z,84.10
2023-03-31T16:05:56.939Z,84.90
2023-03-31T16:09:24.992Z,84.80
2023-03-31T16:13:09.365Z,85.00
2023-03-31T16:16:32.846Z,85.00
2023-03-31T16:20:01.019Z,84.30
2023-03-31T16:23:27.335Z,84.40
2023-03-31T16:26:49.681Z,84.70
2023-03-31T16:30:15.429Z,84.80
2023-03-31T16:33:55.290Z,84.80
2023-03-31T16:37:17.558Z,85.30
2023-03-31T16:40:42.369Z,85.10
2023-03-31T16:44:06.407Z,85.20
2023-03-31T16:47:35.100Z,86.20
2023-03-31T16:51:00.328Z,86.40
2023-03-31T16:54:22.651Z,86.60
2023-03-31T16:57:44.956Z,86.90
2023-03-31T17:01:08.811Z,86.90
2023-03-31T17:04:31.658Z,86.90
2023-03-31T17:07:54.219Z,86.60
2023-03-31T17:11:16.829Z,86.40
2023-03-31T17:14:39.589Z,86.50
2023-03-31T17:18:03.648Z,86.10
2023-03-31T17:21:27.176Z,86.40
2023-03-31T17:24:52.792Z,86.10
2023-03-31T17:28:15.308Z,86.00
2023-03-31T17:31:37.664Z,86.00
2023-03-31T17:35:00.115Z,86.40
2023-03-31T17:38:22.595Z,86.00
2023-03-31T17:41:44.949Z,84.60
2023-03-31T17:45:08.733Z,86.20
2023-03-31T17:48:31.551Z,86.50
2023-03-31T17:51:53.744Z,86.10
2023-03-31T17:55:16.981Z,85.60
2023-03-31T17:58:39.707Z,85.40
2023-03-31T18:02:02.180Z,85.10
2023-03-31T18:05:25.000Z,85.30
2023-03-31T18:08:47.941Z,85.80
2023-03-31T18:12:10.164Z,85.60
2023-03-31T18:15:32.507Z,85.60
2023-03-31T18:18:54.997Z,85.20
2023-03-31T18:22:17.590Z,85.10
2023-03-31T18:25:45.179Z,85.30
2023-03-31T18:29:07.577Z,86.00
2023-03-31T18:32:29.997Z,85.60
2023-03-31T18:35:53.157Z,86.10
2023-03-31T18:39:15.657Z,86.60
2023-03-31T18:42:38.121Z,86.00
2023-03-31T18:46:01.359Z,85.70
2023-03-31T18:49:23.762Z,86.40
2023-03-31T18:52:47.675Z,86.70
2023-03-31T18:56:11.142Z,86.40
2023-03-31T18:59:33.354Z,85.80
2023-03-31T19:02:55.842Z,85.80
2023-03-31T19:06:20.198Z,86.00
2023-03-31T19:09:42.662Z,85.60
2023-03-31T19:13:05.698Z,85.10
2023-03-31T19:16:28.770Z,85.90
2023-03-31T19:19:51.176Z,86.00
2023-03-31T19:23:13.461Z,85.70
2023-03-31T19:26:36.126Z,86.70
2023-03-31T19:29:58.427Z,86.40
2023-03-31T19:33:20.692Z,86.50
2023-03-31T19:36:43.269Z,85.90
2023-03-31T19:40:06.330Z,85.70
2023-03-31T19:43:30.269Z,85.80
2023-03-31T19:46:53.150Z,85.80
2023-03-31T19:50:15.581Z,85.50
2023-03-31T19:53:38.721Z,84.10
2023-03-31T19:57:01.943Z,84.00
2023-03-31T20:00:24.989Z,83.90
2023-03-31T20:03:52.606Z,85.00
2023-03-31T20:07:15.172Z,87.10
2023-03-31T20:10:37.622Z,87.40
2023-03-31T20:14:00.667Z,87.40
2023-03-31T20:17:23.073Z,87.00
2023-03-31T20:20:45.982Z,86.60
2023-03-31T20:24:11.301Z,86.10
2023-03-31T20:27:33.441Z,85.90
2023-03-31T20:30:56.224Z,85.60
2023-03-31T20:34:22.486Z,85.50
2023-03-31T20:37:44.764Z,85.60
2023-03-31T20:41:08.097Z,85.50
2023-03-31T20:44:30.690Z,85.60
2023-03-31T20:47:53.032Z,85.60
2023-03-31T20:51:21.937Z,85.50
2023-03-31T20:54:44.331Z,85.50
2023-03-31T20:58:06.598Z,85.60
2023-03-31T21:01:32.246Z,85.50
2023-03-31T21:04:54.663Z,85.70
2023-03-31T21:08:16.870Z,85.60
2023-03-31T21:11:42.662Z,85.60
2023-03-31T21:15:05.538Z,85.60
2023-03-31T21:18:32.863Z,85.70
2023-03-31T21:21:55.221Z,85.70
2023-03-31T21:25:17.481Z,85.60
2023-03-31T21:28:39.804Z,85.50
2023-03-31T21:32:02.190Z,86.50
2023-03-31T21:35:25.630Z,85.50
2023-03-31T21:38:49.259Z,85.50
2023-03-31T21:42:11.509Z,85.60
2023-03-31T21:45:38.754Z,85.50
2023-03-31T21:49:02.486Z,85.60
2023-03-31T21:52:25.050Z,85.60
2023-03-31T21:55:48.156Z,85.70
2023-03-31T21:59:10.537Z,85.60
2023-03-31T22:02:33.372Z,85.60
2023-03-31T22:05:59.176Z,85.50
2023-03-31T22:09:21.617Z,85.60
2023-03-31T22:12:43.899Z,85.70
2023-03-31T22:16:20.686Z,85.70
2023-03-31T22:19:43.066Z,85.60
2023-03-31T22:23:06.315Z,85.60
2023-03-31T22:26:31.024Z,85.70
2023-03-31T22:29:53.251Z,85.70
2023-03-31T22:33:15.585Z,85.70
2023-03-31T22:36:37.815Z,85.70
2023-03-31T22:40:00.392Z,85.70
2023-03-31T22:43:22.743Z,85.70
2023-03-31T22:46:50.712Z,85.70
2023-03-31T22:50:12.968Z,85.70
2023-03-31T22:53:35.453Z,85.80
2023-03-31T22:56:57.856Z,85.70
2023-03-31T23:00:20.498Z,86.20
2023-03-31T23:03:43.746Z,86.20
2023-03-31T23:07:06.440Z,86.60
2023-03-31T23:10:28.906Z,86.60
2023-03-31T23:13:51.383Z,86.40
2023-03-31T23:17:13.559Z,86.20
2023-03-31T23:20:39.075Z,86.10
2023-03-31T23:24:02.452Z,86.10
2023-03-31T23:27:24.770Z,86.10
2023-03-31T23:30:56.548Z,86.00
2023-03-31T23:34:18.920Z,86.10
2023-03-31T23:37:41.248Z,85.90
2023-03-31T23:41:03.748Z,86.90
2023-03-31T23:44:26.112Z,86.10
2023-03-31T23:47:48.376Z,86.10
2023-03-31T23:51:11.326Z,85.90
2023-03-31T23:54:33.645Z,85.90
2023-03-31T23:57:57.314Z,85.90
